createdAt,value
2018-02-16T00:02:05.574Z,98.10
2018-02-16T00:04:31.724Z,98.10
2018-02-16T00:06:57.882Z,98.00
2018-02-16T00:09:24.388Z,98.10
2018-02-16T00:11:51.709Z,98.30
2018-02-16T00:14:17.853Z,98.30
2018-02-16T00:16:43.998Z,98.10
2018-02-16T00:19:10.132Z,98.00
2018-02-16T00:24:33.826Z,98.20
2018-02-16T00:26:59.910Z,98.00
2018-02-16T00:29:25.987Z,98.20
2018-02-16T00:31:52.086Z,98.20
2018-02-16T00:34:18.167Z,98.40
2018-02-16T00:36:45.244Z,98.60
2018-02-16T00:39:11.603Z,98.50
2018-02-16T00:41:38.398Z,98.60
2018-02-16T00:44:04.697Z,98.50
2018-02-16T00:46:31.684Z,98.60
2018-02-16T00:48:57.766Z,98.70
2018-02-16T00:51:23.836Z,98.60
2018-02-16T00:53:53.480Z,98.60
2018-02-16T00:56:19.782Z,98.60
2018-02-16T00:58:45.877Z,98.90
2018-02-16T01:01:12.241Z,98.90
2018-02-16T01:03:38.314Z,98.90
2018-02-16T01:06:04.415Z,98.80
2018-02-16T01:08:30.545Z,98.70
2018-02-16T01:10:56.674Z,98.60
2018-02-16T01:13:22.929Z,98.30
2018-02-16T01:15:49.115Z,98.00
2018-02-16T01:18:15.237Z,98.00
2018-02-16T01:20:42.106Z,97.70
2018-02-16T01:23:08.340Z,97.60
2018-02-16T01:25:34.418Z,97.50
2018-02-16T01:28:00.492Z,97.20
2018-02-16T01:30:26.566Z,97.10
2018-02-16T01:32:52.645Z,97.10
2018-02-16T01:35:18.732Z,96.90
2018-02-16T01:37:44.801Z,97.00
2018-02-16T01:40:10.877Z,96.80
2018-02-16T01:42:36.977Z,96.80
2018-02-16T01:45:03.054Z,96.70
2018-02-16T01:47:29.361Z,96.80
2018-02-16T01:50:06.416Z,96.90
2018-02-16T01:52:32.502Z,96.80
2018-02-16T01:54:58.588Z,97.10
2018-02-16T01:57:24.689Z,97.40
2018-02-16T01:59:50.762Z,97.70
2018-02-16T02:02:16.904Z,97.70
2018-02-16T02:04:43.709Z,98.00
2018-02-16T02:07:09.780Z,97.70
2018-02-16T02:09:35.878Z,98.00
2018-02-16T02:12:01.986Z,97.80
2018-02-16T02:14:28.816Z,97.60
2018-02-16T02:16:54.889Z,97.50
2018-02-16T02:19:21.038Z,97.10
2018-02-16T02:21:47.145Z,96.70
2018-02-16T02:24:13.213Z,96.50
2018-02-16T02:26:39.285Z,96.00
2018-02-16T02:29:05.362Z,95.80
2018-02-16T02:31:31.445Z,95.60
2018-02-16T02:33:57.530Z,95.30
2018-02-16T02:36:24.374Z,95.00
2018-02-16T02:38:51.198Z,94.60
2018-02-16T02:41:17.274Z,94.60
2018-02-16T02:43:43.394Z,94.20
2018-02-16T02:46:09.487Z,94.00
2018-02-16T02:48:35.566Z,93.80
2018-02-16T02:51:01.679Z,93.80
2018-02-16T02:53:27.777Z,93.50
2018-02-16T02:55:54.593Z,93.40
2018-02-16T02:58:20.674Z,93.40
2018-02-16T03:00:46.741Z,93.10
2018-02-16T03:03:12.805Z,93.10
2018-02-16T03:05:38.918Z,93.10
2018-02-16T03:08:05.731Z,92.60
2018-02-16T03:10:31.812Z,92.50
2018-02-16T03:12:58.166Z,92.20
2018-02-16T03:15:24.250Z,91.50
2018-02-16T03:17:50.337Z,91.30
2018-02-16T03:20:16.421Z,91.30
2018-02-16T03:22:42.719Z,91.80
2018-02-16T03:25:09.532Z,90.80
2018-02-16T03:27:35.606Z,90.80
2018-02-16T03:30:01.690Z,90.50
2018-02-16T03:32:28.513Z,91.10
2018-02-16T03:34:54.581Z,90.20
2018-02-16T03:37:21.421Z,90.10
2018-02-16T03:39:48.249Z,89.80
2018-02-16T03:42:14.321Z,89.80
2018-02-16T03:44:40.406Z,89.50
2018-02-16T03:47:07.254Z,89.50
2018-02-16T03:49:34.066Z,89.30
2018-02-16T03:52:00.403Z,89.30
2018-02-16T03:54:26.483Z,89.10
2018-02-16T03:56:52.633Z,89.40
2018-02-16T03:59:18.706Z,89.60
2018-02-16T04:01:44.789Z,89.90
2018-02-16T04:04:10.897Z,89.90
2018-02-16T04:06:36.976Z,90.30
2018-02-16T04:09:03.061Z,90.40
2018-02-16T04:11:29.161Z,91.10
2018-02-16T04:13:55.242Z,91.30
2018-02-16T04:16:21.313Z,91.30
2018-02-16T04:18:47.401Z,91.50
2018-02-16T04:21:14.458Z,91.50
2018-02-16T04:23:41.274Z,91.60
2018-02-16T04:26:07.338Z,91.50
2018-02-16T04:28:33.413Z,91.60
2018-02-16T04:30:59.508Z,91.30
2018-02-16T04:33:25.583Z,91.20
2018-02-16T04:35:51.672Z,91.50
2018-02-16T04:38:17.761Z,91.80
2018-02-16T04:40:43.846Z,92.00
2018-02-16T04:43:09.937Z,92.10
2018-02-16T04:45:36.014Z,92.80
2018-02-16T04:48:02.096Z,92.90
2018-02-16T04:50:28.182Z,93.00
2018-02-16T04:52:54.262Z,93.20
2018-02-16T04:55:20.625Z,93.70
2018-02-16T04:57:47.446Z,93.60
2018-02-16T05:00:13.534Z,93.60
2018-02-16T05:02:39.660Z,93.60
2018-02-16T05:05:05.749Z,94.10
2018-02-16T05:07:31.842Z,94.10
2018-02-16T05:09:57.930Z,94.10
2018-02-16T05:12:24.017Z,94.10
2018-02-16T05:14:50.842Z,94.40
2018-02-16T05:17:16.923Z,94.30
2018-02-16T05:19:42.985Z,94.50
2018-02-16T05:22:09.421Z,94.60
2018-02-16T05:24:35.566Z,94.80
2018-02-16T05:27:01.673Z,94.60
2018-02-16T05:29:28.452Z,94.60
2018-02-16T05:31:54.516Z,94.50
2018-02-16T05:34:20.598Z,94.70
2018-02-16T05:36:47.417Z,94.80
2018-02-16T05:39:13.510Z,94.70
2018-02-16T05:41:39.585Z,94.60
2018-02-16T05:44:06.409Z,94.70
2018-02-16T05:46:32.526Z,94.70
2018-02-16T05:48:58.610Z,94.70
2018-02-16T05:51:24.694Z,94.80
2018-02-16T05:53:50.778Z,94.80
2018-02-16T05:56:16.853Z,95.00
2018-02-16T05:58:43.666Z,95.40
2018-02-16T06:01:09.757Z,95.30
2018-02-16T06:03:35.825Z,95.30
2018-02-16T06:06:03.407Z,95.30
2018-02-16T06:08:29.497Z,95.30
2018-02-16T06:10:55.566Z,95.50
2018-02-16T06:13:21.702Z,95.70
2018-02-16T06:15:47.793Z,95.90
2018-02-16T06:18:13.894Z,95.70
2018-02-16T06:20:39.965Z,95.70
2018-02-16T06:23:06.080Z,95.70
2018-02-16T06:25:32.185Z,95.50
2018-02-16T06:27:58.252Z,95.60
2018-02-16T06:30:24.482Z,95.30
2018-02-16T06:32:50.575Z,95.50
2018-02-16T06:35:16.649Z,95.40
2018-02-16T06:37:42.833Z,95.50
2018-02-16T06:40:09.641Z,95.80
2018-02-16T06:42:35.710Z,95.80
2018-02-16T06:45:02.536Z,95.80
2018-02-16T06:47:29.375Z,95.80
2018-02-16T06:49:55.450Z,95.70
2018-02-16T06:52:21.530Z,96.00
2018-02-16T06:54:47.613Z,96.00
2018-02-16T06:57:14.194Z,95.80
2018-02-16T06:59:41.021Z,95.80
2018-02-16T07:02:07.118Z,95.80
2018-02-16T07:04:33.199Z,96.00
2018-02-16T07:07:00.017Z,96.00
2018-02-16T07:09:26.093Z,96.00
2018-02-16T07:11:52.173Z,95.90
2018-02-16T07:14:18.320Z,96.20
2018-02-16T07:16:51.481Z,96.60
2018-02-16T07:19:17.558Z,97.10
2018-02-16T07:21:43.950Z,97.00
2018-02-16T07:24:10.774Z,95.80
2018-02-16T07:26:37.586Z,95.70
2018-02-16T07:29:03.685Z,95.50
2018-02-16T07:31:29.767Z,95.30
2018-02-16T07:33:55.870Z,95.30
2018-02-16T07:36:21.974Z,95.20
2018-02-16T07:38:55.128Z,95.50
2018-02-16T07:41:21.232Z,95.00
2018-02-16T07:43:47.315Z,94.70
2018-02-16T07:46:13.401Z,94.40
2018-02-16T07:48:39.543Z,94.30
2018-02-16T07:51:05.636Z,94.30
2018-02-16T07:53:31.701Z,94.30
2018-02-16T07:55:57.790Z,94.60
2018-02-16T07:58:23.870Z,94.60
2018-02-16T08:00:49.960Z,94.60
2018-02-16T08:03:16.057Z,94.40
2018-02-16T08:05:42.190Z,94.50
2018-02-16T08:08:08.302Z,94.20
2018-02-16T08:10:34.406Z,94.20
2018-02-16T08:13:00.472Z,94.10
2018-02-16T08:15:26.559Z,93.90
2018-02-16T08:17:52.644Z,94.00
2018-02-16T08:20:18.733Z,93.80
2018-02-16T08:22:44.831Z,93.50
2018-02-16T08:25:11.133Z,93.20
2018-02-16T08:27:37.245Z,93.60
2018-02-16T08:30:04.126Z,93.00
2018-02-16T08:32:30.218Z,93.60
2018-02-16T08:34:57.035Z,92.50
2018-02-16T08:37:23.098Z,92.40
2018-02-16T08:39:49.174Z,92.20
2018-02-16T08:42:15.302Z,91.50
2018-02-16T08:44:41.418Z,91.30
2018-02-16T08:47:07.507Z,91.10
2018-02-16T08:49:33.609Z,91.20
2018-02-16T08:52:00.661Z,90.20
2018-02-16T08:54:26.729Z,90.10
2018-02-16T08:56:52.818Z,89.90
2018-02-16T08:59:18.905Z,89.60
2018-02-16T09:01:44.978Z,89.60
2018-02-16T09:04:11.054Z,89.00
2018-02-16T09:06:37.142Z,88.80
2018-02-16T09:09:03.281Z,88.00
2018-02-16T09:11:29.354Z,87.70
2018-02-16T09:13:56.226Z,87.40
2018-02-16T09:16:22.320Z,87.00
2018-02-16T09:18:48.417Z,86.70
2018-02-16T09:21:14.489Z,86.40
2018-02-16T09:23:41.298Z,85.90
2018-02-16T09:26:07.761Z,85.90
2018-02-16T09:28:34.570Z,85.20
2018-02-16T09:31:00.638Z,85.90
2018-02-16T09:33:26.709Z,85.10
2018-02-16T09:35:53.895Z,84.20
2018-02-16T09:38:19.967Z,84.20
2018-02-16T09:40:46.066Z,83.60
2018-02-16T09:43:12.141Z,84.20
2018-02-16T09:45:38.212Z,83.20
2018-02-16T09:48:04.317Z,83.10
2018-02-16T09:50:30.398Z,83.30
2018-02-16T09:52:56.490Z,83.30
2018-02-16T09:55:22.553Z,82.70
2018-02-16T09:57:48.617Z,82.00
2018-02-16T10:00:14.726Z,81.80
2018-02-16T10:02:40.828Z,82.20
2018-02-16T10:05:06.908Z,81.40
2018-02-16T10:07:32.989Z,81.00
2018-02-16T10:09:59.067Z,80.90
2018-02-16T10:12:25.154Z,80.90
2018-02-16T10:14:51.233Z,80.60
2018-02-16T10:17:17.309Z,80.10
2018-02-16T10:19:43.458Z,80.00
2018-02-16T10:22:09.527Z,80.10
2018-02-16T10:24:35.593Z,79.60
2018-02-16T10:27:02.641Z,77.90
2018-02-16T10:29:28.708Z,77.90
2018-02-16T10:31:54.789Z,77.60
2018-02-16T10:34:21.666Z,77.40
2018-02-16T10:36:47.733Z,77.00
2018-02-16T10:39:13.809Z,76.40
2018-02-16T10:41:39.936Z,75.80
2018-02-16T10:44:06.000Z,75.40
2018-02-16T10:46:32.078Z,74.50
2018-02-16T10:48:58.197Z,74.90
2018-02-16T10:51:24.266Z,74.80
2018-02-16T10:53:50.338Z,73.90
2018-02-16T10:56:17.190Z,72.50
2018-02-16T11:01:42.722Z,72.80
2018-02-16T11:04:14.866Z,72.80
2018-02-16T11:06:47.197Z,71.70
2018-02-16T11:09:19.347Z,70.80
2018-02-16T11:11:50.281Z,69.50
2018-02-16T11:14:16.353Z,68.50
2018-02-16T11:16:43.162Z,68.10
2018-02-16T11:19:09.225Z,68.00
2018-02-16T11:21:35.329Z,67.20
2018-02-16T11:24:01.414Z,66.30
2018-02-16T11:26:27.491Z,66.40
2018-02-16T11:28:54.113Z,66.30
2018-02-16T11:31:20.209Z,66.70
2018-02-16T11:33:46.305Z,66.30
2018-02-16T11:36:12.430Z,65.80
2018-02-16T11:38:45.423Z,64.90
2018-02-16T11:41:12.237Z,63.30
2018-02-16T11:43:38.335Z,63.30
2018-02-16T11:46:04.402Z,62.40
2018-02-16T11:48:30.493Z,61.50
2018-02-16T11:50:56.565Z,61.70
2018-02-16T11:56:20.099Z,61.50
2018-02-16T11:58:46.241Z,60.90
2018-02-16T12:01:12.388Z,60.90
2018-02-16T12:03:38.781Z,60.50
2018-02-16T12:06:04.925Z,58.80
2018-02-16T12:08:31.053Z,58.70
2018-02-16T12:10:57.780Z,59.00
2018-02-16T12:13:23.912Z,59.10
2018-02-16T12:15:50.037Z,58.70
2018-02-16T12:18:23.420Z,59.00
2018-02-16T12:20:49.545Z,58.20
2018-02-16T12:23:15.689Z,58.20
2018-02-16T12:25:42.099Z,58.20
2018-02-16T12:28:08.232Z,58.40
2018-02-16T12:30:34.561Z,58.60
2018-02-16T12:33:00.700Z,58.20
2018-02-16T12:35:26.836Z,58.10
2018-02-16T12:37:53.004Z,57.90
2018-02-16T12:40:19.864Z,56.60
2018-02-16T12:42:46.015Z,56.50
2018-02-16T12:45:12.135Z,56.30
2018-02-16T12:47:38.304Z,56.60
2018-02-16T12:50:05.927Z,57.40
2018-02-16T12:52:32.057Z,57.40
2018-02-16T12:54:58.258Z,57.80
2018-02-16T12:57:24.437Z,57.80
2018-02-16T12:59:50.580Z,57.50
2018-02-16T13:02:16.772Z,57.00
2018-02-16T13:04:42.917Z,57.10
2018-02-16T13:07:09.212Z,57.10
2018-02-16T13:09:35.378Z,57.30
2018-02-16T13:12:01.528Z,56.80
2018-02-16T13:14:28.409Z,56.90
2018-02-16T13:16:54.539Z,56.90
2018-02-16T13:19:20.727Z,57.40
2018-02-16T13:21:46.875Z,57.60
2018-02-16T13:24:13.082Z,57.20
2018-02-16T13:26:39.210Z,56.60
2018-02-16T13:29:05.401Z,56.50
2018-02-16T13:31:31.638Z,56.50
2018-02-16T13:33:57.764Z,56.40
2018-02-16T13:36:23.916Z,56.40
2018-02-16T13:38:50.069Z,56.40
2018-02-16T13:41:16.184Z,56.70
2018-02-16T13:43:42.321Z,56.70
2018-02-16T13:46:08.485Z,56.70
2018-02-16T13:48:34.652Z,56.40
2018-02-16T13:51:01.530Z,56.30
2018-02-16T13:53:27.676Z,56.30
2018-02-16T13:55:53.814Z,56.20
2018-02-16T13:58:19.965Z,56.20
2018-02-16T14:00:46.096Z,56.50
2018-02-16T14:03:12.248Z,56.30
2018-02-16T14:05:38.410Z,56.90
2018-02-16T14:08:04.557Z,57.50
2018-02-16T14:10:30.710Z,57.90
2018-02-16T14:12:59.104Z,60.40
2018-02-16T14:15:25.247Z,60.40
2018-02-16T14:17:51.470Z,62.60
2018-02-16T14:20:17.606Z,65.90
2018-02-16T14:22:43.752Z,67.80
2018-02-16T14:25:09.889Z,68.80
2018-02-16T14:27:36.784Z,69.80
2018-02-16T14:30:03.372Z,69.80
2018-02-16T14:32:29.500Z,70.30
2018-02-16T14:34:55.637Z,70.40
2018-02-16T14:37:22.177Z,70.00
2018-02-16T14:39:48.364Z,69.60
2018-02-16T14:42:14.521Z,69.60
2018-02-16T14:44:40.669Z,69.50
2018-02-16T14:47:06.806Z,69.40
2018-02-16T14:49:32.941Z,69.20
2018-02-16T14:51:59.086Z,69.30
2018-02-16T14:54:25.841Z,69.50
2018-02-16T14:56:59.277Z,69.60
2018-02-16T14:59:25.424Z,70.00
2018-02-16T15:01:52.304Z,70.80
2018-02-16T15:04:27.795Z,70.70
2018-02-16T15:06:53.940Z,70.40
2018-02-16T15:09:21.617Z,70.30
2018-02-16T15:11:47.885Z,70.30
2018-02-16T15:14:14.017Z,70.90
2018-02-16T15:16:40.154Z,71.30
2018-02-16T15:19:09.054Z,71.10
2018-02-16T15:21:36.517Z,71.10
2018-02-16T15:24:03.816Z,71.80
2018-02-16T15:26:29.942Z,71.70
2018-02-16T15:28:56.065Z,72.20
2018-02-16T15:31:22.216Z,72.50
2018-02-16T15:33:48.355Z,72.40
2018-02-16T15:36:14.481Z,72.00
2018-02-16T15:38:40.617Z,71.60
2018-02-16T15:41:06.760Z,70.60
2018-02-16T15:43:32.904Z,69.80
2018-02-16T15:45:59.044Z,69.10
2018-02-16T15:48:25.176Z,68.70
2018-02-16T15:50:51.337Z,68.20
2018-02-16T15:53:17.493Z,68.30
2018-02-16T15:55:43.625Z,68.20
2018-02-16T15:58:09.756Z,67.60
2018-02-16T16:00:36.664Z,67.50
2018-02-16T16:03:02.843Z,67.40
2018-02-16T16:05:29.693Z,67.10
2018-02-16T16:07:55.864Z,67.00
2018-02-16T16:10:21.994Z,67.20
2018-02-16T16:12:48.156Z,67.30
2018-02-16T16:15:14.383Z,67.20
2018-02-16T16:17:41.248Z,67.30
2018-02-16T16:20:07.377Z,67.30
2018-02-16T16:22:33.517Z,67.30
2018-02-16T16:24:59.950Z,67.00
2018-02-16T16:27:26.072Z,67.20
2018-02-16T16:29:52.216Z,67.80
2018-02-16T16:32:18.357Z,69.00
2018-02-16T16:34:44.500Z,68.90
2018-02-16T16:37:10.633Z,70.10
2018-02-16T16:39:37.512Z,72.80
2018-02-16T16:42:03.637Z,72.80
2018-02-16T16:44:29.781Z,73.70
2018-02-16T16:46:55.997Z,74.40
2018-02-16T16:49:22.169Z,74.90
2018-02-16T16:51:48.564Z,74.90
2018-02-16T16:54:14.728Z,74.70
2018-02-16T16:56:40.890Z,75.00
2018-02-16T16:59:07.057Z,75.00
2018-02-16T17:01:33.189Z,75.00
2018-02-16T17:03:59.333Z,74.90
2018-02-16T17:06:25.488Z,74.70
2018-02-16T17:08:51.641Z,74.40
2018-02-16T17:11:17.784Z,74.30
2018-02-16T17:13:43.953Z,74.10
2018-02-16T17:16:10.833Z,73.10
2018-02-16T17:18:36.968Z,73.10
2018-02-16T17:21:03.117Z,72.90
2018-02-16T17:23:29.297Z,72.60
2018-02-16T17:25:55.712Z,71.90
2018-02-16T17:28:21.842Z,71.40
2018-02-16T17:30:48.718Z,70.40
2018-02-16T17:33:14.850Z,70.30
2018-02-16T17:35:40.985Z,70.40
2018-02-16T17:38:07.210Z,70.50
2018-02-16T17:40:33.336Z,70.70
2018-02-16T17:42:59.481Z,70.60
2018-02-16T17:45:25.629Z,70.80
2018-02-16T17:47:51.764Z,70.60
2018-02-16T17:50:18.657Z,71.10
2018-02-16T17:52:44.815Z,70.40
2018-02-16T17:55:10.941Z,70.40
2018-02-16T17:57:37.092Z,70.10
2018-02-16T18:00:03.313Z,69.80
2018-02-16T18:02:30.190Z,70.00
2018-02-16T18:04:56.318Z,69.40
2018-02-16T18:07:22.453Z,69.50
2018-02-16T18:09:48.577Z,69.20
2018-02-16T18:12:14.696Z,69.00
2018-02-16T18:14:40.840Z,69.20
2018-02-16T18:17:06.960Z,69.20
2018-02-16T18:19:33.096Z,69.70
2018-02-16T18:21:59.245Z,68.80
2018-02-16T18:24:25.389Z,68.90
2018-02-16T18:26:51.529Z,68.90
2018-02-16T18:29:17.664Z,68.90
2018-02-16T18:31:43.792Z,68.80
2018-02-16T18:34:09.959Z,68.80
2018-02-16T18:36:36.108Z,68.80
2018-02-16T18:39:02.265Z,68.70
2018-02-16T18:41:29.215Z,68.40
2018-02-16T18:43:55.343Z,68.40
2018-02-16T18:46:21.493Z,68.40
2018-02-16T18:48:47.622Z,68.50
2018-02-16T18:51:13.761Z,68.60
2018-02-16T18:53:39.968Z,68.50
2018-02-16T18:56:06.105Z,68.60
2018-02-16T18:58:32.268Z,68.60
2018-02-16T19:00:58.416Z,68.50
2018-02-16T19:03:25.285Z,68.50
2018-02-16T19:05:51.443Z,68.50
2018-02-16T19:08:17.580Z,68.60
2018-02-16T19:10:43.803Z,68.40
2018-02-16T19:13:09.928Z,68.40
2018-02-16T19:15:36.065Z,69.10
2018-02-16T19:18:02.225Z,68.20
2018-02-16T19:20:29.117Z,68.30
2018-02-16T19:22:55.283Z,68.30
2018-02-16T19:25:22.089Z,68.30
2018-02-16T19:27:48.804Z,68.50
2018-02-16T19:30:14.976Z,68.50
2018-02-16T19:32:41.854Z,68.60
2018-02-16T19:35:08.025Z,69.40
2018-02-16T19:37:34.169Z,69.00
2018-02-16T19:40:00.432Z,69.10
2018-02-16T19:42:27.325Z,69.10
2018-02-16T19:44:54.145Z,68.90
2018-02-16T19:47:21.120Z,68.80
2018-02-16T19:49:47.308Z,68.70
2018-02-16T19:52:14.637Z,68.60
2018-02-16T19:54:41.522Z,68.50
2018-02-16T19:57:08.456Z,68.60
2018-02-16T19:59:34.600Z,68.60
2018-02-16T20:02:00.749Z,68.60
2018-02-16T20:04:26.877Z,68.50
2018-02-16T20:06:53.013Z,68.60
2018-02-16T20:09:19.921Z,68.80
2018-02-16T20:11:46.084Z,68.70
2018-02-16T20:14:12.234Z,68.70
2018-02-16T20:16:39.313Z,68.70
2018-02-16T20:19:06.872Z,68.90
2018-02-16T20:21:33.048Z,68.80
2018-02-16T20:23:59.181Z,68.90
2018-02-16T20:26:25.324Z,69.30
2018-02-16T20:28:51.499Z,69.60
2018-02-16T20:31:17.653Z,69.60
2018-02-16T20:33:43.796Z,69.90
2018-02-16T20:36:09.993Z,70.10
2018-02-16T20:38:36.133Z,70.40
2018-02-16T20:41:03.747Z,70.70
2018-02-16T20:43:29.902Z,70.70
2018-02-16T20:45:56.523Z,70.80
2018-02-16T20:48:22.733Z,70.90
2018-02-16T20:50:48.873Z,71.10
2018-02-16T20:56:14.414Z,72.80
2018-02-16T20:58:40.466Z,71.90
2018-02-16T21:01:06.501Z,72.30
2018-02-16T21:03:32.523Z,72.60
2018-02-16T21:05:58.573Z,73.00
2018-02-16T21:08:24.728Z,73.10
2018-02-16T21:10:50.775Z,73.30
2018-02-16T21:13:16.846Z,73.40
2018-02-16T21:15:43.000Z,73.70
2018-02-16T21:18:09.108Z,73.80
2018-02-16T21:20:35.150Z,74.10
2018-02-16T21:23:01.207Z,74.40
2018-02-16T21:25:27.242Z,74.40
2018-02-16T21:27:53.292Z,74.20
2018-02-16T21:30:19.586Z,74.10
2018-02-16T21:32:45.615Z,75.00
2018-02-16T21:38:08.914Z,75.00
2018-02-16T21:40:34.943Z,74.80
2018-02-16T21:43:00.974Z,74.80
2018-02-16T21:48:26.375Z,74.70
2018-02-16T21:50:52.408Z,75.00
2018-02-16T21:53:18.423Z,75.00
2018-02-16T21:55:44.448Z,75.00
2018-02-16T21:58:10.466Z,75.30
2018-02-16T22:00:36.490Z,75.40
2018-02-16T22:03:03.030Z,75.40
2018-02-16T22:05:29.046Z,75.40
2018-02-16T22:07:55.070Z,75.40
2018-02-16T22:10:21.100Z,75.70
2018-02-16T22:12:47.135Z,75.60
2018-02-16T22:15:13.347Z,75.70
2018-02-16T22:17:39.359Z,75.70
2018-02-16T22:20:05.385Z,76.00
2018-02-16T22:22:31.418Z,75.90
2018-02-16T22:24:57.442Z,76.10
2018-02-16T22:27:23.460Z,75.90
2018-02-16T22:29:49.479Z,76.30
2018-02-16T22:32:15.512Z,76.30
2018-02-16T22:34:41.538Z,76.60
2018-02-16T22:37:07.555Z,76.70
2018-02-16T22:39:33.680Z,76.60
2018-02-16T22:41:59.734Z,76.70
2018-02-16T22:44:26.005Z,76.70
2018-02-16T22:46:52.041Z,76.70
2018-02-16T22:49:18.075Z,77.00
2018-02-16T22:51:44.099Z,77.30
2018-02-16T23:03:03.341Z,79.50
2018-02-16T23:05:29.388Z,80.10
2018-02-16T23:08:02.267Z,80.30
2018-02-16T23:10:28.297Z,80.30
2018-02-16T23:12:54.306Z,80.70
2018-02-16T23:15:20.842Z,80.80
2018-02-16T23:17:46.876Z,81.10
2018-02-16T23:20:12.918Z,81.30
2018-02-16T23:22:38.952Z,81.40
2018-02-16T23:25:04.979Z,81.50
2018-02-16T23:27:31.030Z,81.90
2018-02-16T23:29:57.066Z,82.60
2018-02-16T23:35:21.383Z,83.50
2018-02-16T23:37:47.398Z,83.70
2018-02-16T23:40:13.422Z,84.30
2018-02-16T23:45:26.537Z,84.00
2018-02-16T23:47:52.597Z,83.90
2018-02-16T23:50:19.079Z,83.80
2018-02-16T23:52:45.115Z,83.80
2018-02-16T23:55:11.156Z,83.70
2018-02-16T23:57:37.212Z,83.90
